Time;durP1;ratioP1;P1;durP2;ratioP2;P2;SDS_P1;SDS_P2;PMS_P1;PMS_P2;Temp;Humidity;BMP_temperature;BMP_pressure;BME280_temperature;BME280_humidity;BME280_pressure;Samples;Min_cycle;Max_cycle;Signal;HPM_P1;HPM_P2
2024/01/29 00:02:02;;;;;;;13.73;10.27;;;;;;;0.51;73.84;99714.59;4972818;28;20039;-72
2024/01/29 00:04:27;;;;;;;12.30;10.98;;;;;;;0.41;73.14;99698.72;4967962;28;20031;-72
2024/01/29 00:06:53;;;;;;;15.75;12.68;;;;;;;0.47;74.13;99710.56;4952859;28;20550;-72
2024/01/29 00:09:18;;;;;;;17.45;13.85;;;;;;;0.45;73.75;99709.84;4963421;28;20483;-73
2024/01/29 00:11:43;;;;;;;17.63;14.15;;;;;;;0.28;73.84;99692.06;4953405;29;20042;-72
2024/01/29 00:14:09;;;;;;;17.02;13.57;;;;;;;0.32;73.43;99701.41;4953814;28;20031;-70
2024/01/29 00:16:34;;;;;;;17.88;13.73;;;;;;;0.30;74.08;99696.25;4950788;29;20044;-72
2024/01/29 00:19:00;;;;;;;13.85;12.25;;;;;;;0.25;74.12;99697.66;4959202;28;20046;-70
2024/01/29 00:21:26;;;;;;;14.13;10.85;;;;;;;0.05;73.49;99685.41;4968114;28;20061;-70
2024/01/29 00:23:51;;;;;;;13.40;11.15;;;;;;;0.10;74.01;99693.75;4952499;28;20031;-69
2024/01/29 00:26:17;;;;;;;13.07;10.20;;;;;;;0.08;74.49;99698.34;4964609;28;20039;-70
2024/01/29 00:28:42;;;;;;;12.27;9.88;;;;;;;0.06;74.26;99693.22;4953365;28;20035;-70
2024/01/29 00:31:07;;;;;;;15.20;11.07;;;;;;;0.14;74.77;99695.16;4968033;28;20035;-70
2024/01/29 00:33:33;;;;;;;10.50;8.65;;;;;;;0.02;74.65;99686.53;4953164;28;20029;-71
2024/01/29 00:35:58;;;;;;;12.70;9.10;;;;;;;0.16;74.67;99701.16;4961347;28;20039;-70
2024/01/29 00:38:24;;;;;;;10.13;9.10;;;;;;;0.05;74.50;99690.72;4948558;28;20055;-71
2024/01/29 00:40:49;;;;;;;9.45;8.63;;;;;;;0.11;74.93;99695.44;4949845;29;20448;-71
2024/01/29 00:43:14;;;;;;;11.60;9.02;;;;;;;0.08;74.02;99698.34;4955848;28;20054;-71
2024/01/29 00:45:40;;;;;;;10.85;8.80;;;;;;;-0.03;75.20;99684.31;4953327;28;20066;-72
2024/01/29 00:48:06;;;;;;;9.98;7.90;;;;;;;0.05;74.32;99696.00;4953273;28;20023;-72
2024/01/29 00:50:31;;;;;;;10.80;8.50;;;;;;;0.07;74.56;99694.06;4968421;28;20070;-71
2024/01/29 00:52:56;;;;;;;10.25;8.55;;;;;;;-0.01;74.88;99692.94;4952817;28;20054;-70
2024/01/29 00:55:22;;;;;;;10.68;9.02;;;;;;;-0.03;75.26;99689.59;4953080;28;20117;-69
2024/01/29 00:57:47;;;;;;;11.13;9.07;;;;;;;-0.10;74.72;99682.34;4955106;28;20031;-69
2024/01/29 01:00:14;;;;;;;10.18;8.95;;;;;;;-0.05;75.31;99702.13;4951970;29;20113;-69
2024/01/29 01:02:39;;;;;;;9.65;8.65;;;;;;;-0.07;75.02;99693.50;4959836;28;20032;-72
2024/01/29 01:05:06;;;;;;;11.05;8.20;;;;;;;-0.05;75.43;99696.84;4953057;28;20043;-68
2024/01/29 01:07:32;;;;;;;9.65;8.30;;;;;;;-0.05;75.01;99702.13;4952809;28;20031;-70
2024/01/29 01:09:57;;;;;;;8.25;7.40;;;;;;;-0.10;74.38;99699.09;4967625;28;20035;-70
2024/01/29 01:12:22;;;;;;;7.80;6.90;;;;;;;-0.21;75.25;99680.69;4955450;28;20034;-72
2024/01/29 01:14:48;;;;;;;8.52;6.57;;;;;;;-0.16;75.44;99680.25;4955855;29;20062;-71
2024/01/29 01:17:13;;;;;;;8.15;6.97;;;;;;;-0.08;75.25;99689.19;4968401;28;20106;-71
2024/01/29 01:19:39;;;;;;;8.85;6.97;;;;;;;-0.07;75.42;99690.84;4965837;28;20043;-71
2024/01/29 01:22:04;;;;;;;7.93;6.22;;;;;;;-0.08;75.27;99685.69;4967670;28;20027;-70
2024/01/29 01:24:30;;;;;;;7.68;6.25;;;;;;;-0.05;75.42;99690.72;4964522;28;20035;-71
2024/01/29 01:26:55;;;;;;;7.57;6.30;;;;;;;-0.01;75.50;99698.25;4956392;28;20113;-71
2024/01/29 01:29:21;;;;;;;7.53;6.45;;;;;;;0.02;75.38;99683.88;4971273;28;20038;-71
2024/01/29 01:31:46;;;;;;;8.43;6.47;;;;;;;0.04;75.77;99679.28;4955890;28;20110;-70
2024/01/29 01:34:12;;;;;;;8.68;6.40;;;;;;;0.03;75.40;99676.75;4949467;28;20671;-70
2024/01/29 01:36:37;;;;;;;10.23;6.22;;;;;;;0.02;75.41;99660.06;4956049;29;20031;-70
2024/01/29 01:39:03;;;;;;;8.23;6.50;;;;;;;0.09;74.97;99661.16;4957910;28;20059;-70
2024/01/29 01:41:29;;;;;;;7.70;6.10;;;;;;;0.04;74.64;99646.66;4963321;28;20023;-71
2024/01/29 01:43:54;;;;;;;7.78;5.72;;;;;;;0.15;74.42;99662.38;4966523;28;20050;-70
2024/01/29 01:46:23;;;;;;;8.02;6.72;;;;;;;0.14;74.47;99658.09;4956088;28;20054;-71
2024/01/29 01:48:51;;;;;;;7.10;6.22;;;;;;;0.12;75.42;99655.56;4954731;29;20031;-71
2024/01/29 01:51:17;;;;;;;9.15;6.10;;;;;;;0.11;74.51;99663.66;4946753;28;20023;-70
2024/01/29 01:53:42;;;;;;;7.95;6.13;;;;;;;0.02;74.77;99638.03;4964266;28;20538;-71
2024/01/29 01:56:08;;;;;;;6.97;6.13;;;;;;;0.10;74.66;99646.09;4959250;28;20054;-71
2024/01/29 01:58:34;;;;;;;7.32;6.15;;;;;;;0.08;74.90;99650.69;4955542;28;20039;-70
2024/01/29 02:00:59;;;;;;;7.85;6.78;;;;;;;0.10;75.12;99661.97;4960008;28;20031;-71
2024/01/29 02:03:25;;;;;;;8.40;6.80;;;;;;;0.04;74.48;99652.81;4955590;28;20050;-72
2024/01/29 02:05:51;;;;;;;9.32;6.22;;;;;;;-0.04;74.90;99637.63;4935343;29;20036;-71
2024/01/29 02:08:17;;;;;;;8.50;6.32;;;;;;;-0.08;74.67;99638.88;4968610;28;20043;-71
2024/01/29 02:10:43;;;;;;;7.72;6.93;;;;;;;-0.15;74.71;99632.50;4970401;28;20019;-71
2024/01/29 02:13:12;;;;;;;7.78;6.97;;;;;;;-0.04;75.42;99645.56;4955182;28;20035;-71
2024/01/29 02:15:38;;;;;;;11.82;7.57;;;;;;;-0.03;74.56;99649.06;4955097;28;20035;-71
2024/01/29 02:18:04;;;;;;;10.32;7.95;;;;;;;-0.08;75.19;99649.47;4954007;28;20406;-71
2024/01/29 02:20:30;;;;;;;10.07;8.13;;;;;;;-0.13;75.15;99650.88;4956022;28;20027;-71
2024/01/29 02:22:56;;;;;;;8.43;7.47;;;;;;;-0.21;75.09;99632.22;4964824;28;20046;-70
2024/01/29 02:25:21;;;;;;;9.68;6.90;;;;;;;-0.21;75.10;99638.31;4954845;28;20431;-71
2024/01/29 02:27:47;;;;;;;8.68;6.85;;;;;;;-0.41;75.27;99607.56;4969917;28;20031;-71
2024/01/29 02:30:13;;;;;;;8.35;7.28;;;;;;;-0.26;75.25;99634.44;4958124;28;20475;-71
2024/01/29 02:32:38;;;;;;;8.00;6.68;;;;;;;-0.27;75.45;99638.91;4954784;28;20131;-72
2024/01/29 02:35:04;;;;;;;8.93;6.82;;;;;;;-0.30;74.73;99625.94;4953619;28;20110;-71
2024/01/29 02:37:30;;;;;;;7.85;6.65;;;;;;;-0.33;75.09;99618.31;4968922;28;20424;-70
2024/01/29 02:39:55;;;;;;;9.82;6.90;;;;;;;-0.24;75.33;99621.91;4955035;28;20033;-71
2024/01/29 02:42:21;;;;;;;7.45;6.63;;;;;;;-0.27;75.88;99628.31;4968919;28;20038;-69
2024/01/29 02:44:46;;;;;;;9.20;6.95;;;;;;;-0.25;75.26;99631.66;4960171;28;20050;-71
2024/01/29 02:47:12;;;;;;;8.13;6.68;;;;;;;-0.33;75.26;99613.00;4953960;28;20035;-70
2024/01/29 02:49:37;;;;;;;8.85;6.22;;;;;;;-0.50;75.71;99579.31;4962107;28;20033;-70
2024/01/29 02:52:04;;;;;;;7.78;5.55;;;;;;;-0.45;75.44;99608.00;4955985;28;20125;-71
2024/01/29 02:54:29;;;;;;;8.10;6.80;;;;;;;-0.34;76.16;99594.59;4962636;28;20030;-71
2024/01/29 02:56:55;;;;;;;8.35;6.57;;;;;;;-0.29;75.25;99609.09;4969403;28;20035;-71
2024/01/29 02:59:20;;;;;;;9.32;6.25;;;;;;;-0.33;75.52;99606.88;4969562;28;20487;-69
2024/01/29 03:01:45;;;;;;;8.05;6.93;;;;;;;-0.43;76.14;99606.88;4974394;28;20043;-72
2024/01/29 03:04:11;;;;;;;7.47;6.63;;;;;;;-0.41;76.17;99618.16;4966579;28;20446;-71
2024/01/29 03:06:37;;;;;;;10.27;7.30;;;;;;;-0.41;76.36;99604.94;4953321;29;20049;-70
2024/01/29 03:09:02;;;;;;;8.38;6.43;;;;;;;-0.54;76.13;99587.69;4949403;28;20045;-71
2024/01/29 03:11:27;;;;;;;8.10;7.00;;;;;;;-0.51;76.34;99604.09;4952976;28;20125;-72
2024/01/29 03:13:53;;;;;;;10.18;6.68;;;;;;;-0.58;75.97;99608.25;4954225;28;20051;-72
2024/01/29 03:16:18;;;;;;;8.23;7.43;;;;;;;-0.48;76.38;99614.41;4968809;28;20443;-72
2024/01/29 03:18:43;;;;;;;7.70;6.90;;;;;;;-0.57;76.13;99599.38;4963143;28;20144;-72
2024/01/29 03:21:09;;;;;;;8.40;6.13;;;;;;;-0.74;76.33;99592.97;4968767;28;20035;-73
2024/01/29 03:23:34;;;;;;;9.75;7.70;;;;;;;-0.64;76.13;99597.41;4962813;28;20019;-72
2024/01/29 03:25:59;;;;;;;8.18;7.10;;;;;;;-0.55;76.05;99617.72;4954298;28;20043;-72
2024/01/29 03:28:25;;;;;;;8.40;6.80;;;;;;;-0.53;75.47;99624.56;4963019;28;20438;-71
2024/01/29 03:30:50;;;;;;;8.82;6.57;;;;;;;-0.55;76.00;99629.16;4965397;28;20050;-72
2024/01/29 03:33:16;;;;;;;10.38;7.65;;;;;;;-0.66;75.49;99621.38;4960243;28;20075;-71
2024/01/29 03:35:41;;;;;;;7.97;7.18;;;;;;;-0.64;76.65;99619.41;4953243;28;20035;-70
2024/01/29 03:38:06;;;;;;;7.78;6.97;;;;;;;-0.66;75.73;99613.44;4959171;28;20031;-72
2024/01/29 03:40:32;;;;;;;7.90;6.43;;;;;;;-0.74;76.66;99608.00;4963120;28;20042;-71
2024/01/29 03:42:57;;;;;;;8.10;7.00;;;;;;;-0.66;76.43;99604.66;4966145;28;20027;-70
2024/01/29 03:45:22;;;;;;;8.77;7.20;;;;;;;-0.61;75.72;99613.00;4968579;28;20407;-72
2024/01/29 03:47:48;;;;;;;9.60;7.60;;;;;;;-0.60;76.26;99615.50;4953872;28;20023;-72
2024/01/29 03:50:13;;;;;;;8.00;6.93;;;;;;;-0.59;76.82;99617.19;4952908;28;20396;-71
2024/01/29 03:52:39;;;;;;;9.32;6.80;;;;;;;-0.84;76.52;99607.16;4952461;29;20023;-70
2024/01/29 03:55:04;;;;;;;10.30;7.60;;;;;;;-0.63;76.47;99614.97;4946334;29;20035;-69
2024/01/29 03:57:30;;;;;;;8.45;7.32;;;;;;;-0.72;76.69;99611.31;4958328;28;20491;-69
2024/01/29 03:59:56;;;;;;;9.63;7.78;;;;;;;-0.65;75.87;99622.22;4956357;28;20054;-69
2024/01/29 04:02:22;;;;;;;10.50;7.63;;;;;;;-0.78;76.54;99617.19;4959630;28;20499;-70
2024/01/29 04:04:48;;;;;;;9.05;7.68;;;;;;;-0.75;76.27;99603.69;4960688;28;20411;-70
2024/01/29 04:07:14;;;;;;;9.50;8.00;;;;;;;-0.65;76.35;99612.44;4974811;28;20035;-69
2024/01/29 04:09:40;;;;;;;11.50;8.48;;;;;;;-0.75;76.56;99601.03;4953547;28;20098;-70
2024/01/29 04:12:05;;;;;;;9.38;8.30;;;;;;;-0.82;76.94;99605.22;4968043;28;20063;-69
2024/01/29 04:14:31;;;;;;;10.90;8.88;;;;;;;-0.82;77.09;99606.03;4958508;28;20051;-70
2024/01/29 04:16:56;;;;;;;11.57;9.68;;;;;;;-0.77;76.82;99619.69;4957331;28;20030;-69
2024/01/29 04:19:22;;;;;;;12.95;8.40;;;;;;;-0.92;76.76;99620.22;4953474;28;20035;-69
2024/01/29 04:21:47;;;;;;;10.85;9.18;;;;;;;-0.78;76.46;99617.19;4954672;28;20480;-68
2024/01/29 04:24:13;;;;;;;15.57;8.00;;;;;;;-0.95;76.98;99616.03;4953503;28;20514;-69
2024/01/29 04:26:40;;;;;;;9.55;7.68;;;;;;;-0.87;76.49;99607.44;4949853;29;20035;-69
2024/01/29 04:29:06;;;;;;;9.55;8.40;;;;;;;-0.86;76.72;99609.09;4953177;28;20039;-69
2024/01/29 04:31:31;;;;;;;13.70;12.25;;;;;;;-1.01;76.86;99586.69;4960163;28;20035;-69
2024/01/29 04:33:57;;;;;;;12.63;10.48;;;;;;;-0.92;77.13;99604.34;4956298;28;20031;-69
2024/01/29 04:36:22;;;;;;;8.57;7.60;;;;;;;-0.86;77.15;99598.50;4961244;28;20476;-69
2024/01/29 04:38:49;;;;;;;11.73;8.55;;;;;;;-0.82;77.25;99605.22;4968170;28;20035;-67
2024/01/29 04:41:21;;;;;;;10.13;8.05;;;;;;;-0.76;77.45;99609.94;4949869;28;20035;-68
2024/01/29 04:43:47;;;;;;;12.40;7.63;;;;;;;-0.92;77.50;99614.94;4949436;29;20070;-67
2024/01/29 04:46:12;;;;;;;10.52;8.77;;;;;;;-0.80;77.28;99613.84;4952940;28;20027;-68
2024/01/29 04:48:39;;;;;;;11.48;9.68;;;;;;;-0.85;77.76;99605.47;4956961;28;20166;-68
2024/01/29 04:51:05;;;;;;;12.07;9.32;;;;;;;-0.96;77.81;99592.41;4969761;28;20023;-68
2024/01/29 04:53:31;;;;;;;13.45;8.48;;;;;;;-1.04;77.54;99594.88;4965472;28;20075;-68
2024/01/29 04:55:56;;;;;;;10.73;9.05;;;;;;;-0.86;77.64;99609.09;4956774;28;20102;-69
2024/01/29 04:58:21;;;;;;;10.68;8.50;;;;;;;-0.88;77.21;99606.59;4956793;28;20495;-68
2024/01/29 05:00:47;;;;;;;9.38;7.07;;;;;;;-0.98;77.49;99615.50;4961118;28;20031;-70
2024/01/29 05:03:12;;;;;;;8.40;7.50;;;;;;;-0.92;77.44;99615.78;4956813;28;20058;-68
2024/01/29 05:05:37;;;;;;;9.30;7.57;;;;;;;-0.91;77.88;99622.72;4966104;28;20112;-69
2024/01/29 05:08:03;;;;;;;12.70;10.27;;;;;;;-0.96;77.23;99610.91;4956733;28;20450;-69
2024/01/29 05:10:28;;;;;;;10.80;8.95;;;;;;;-0.89;77.44;99615.47;4961606;28;20035;-69
2024/01/29 05:12:54;;;;;;;11.82;9.63;;;;;;;-0.86;77.46;99619.66;4954474;28;20035;-68
2024/01/29 05:15:19;;;;;;;12.50;7.82;;;;;;;-1.09;77.67;99592.66;4964565;28;20050;-68
2024/01/29 05:17:45;;;;;;;10.65;8.55;;;;;;;-1.07;78.10;99595.13;4967328;28;20039;-69
2024/01/29 05:20:11;;;;;;;11.15;9.20;;;;;;;-0.89;78.27;99607.53;4960037;28;20071;-68
2024/01/29 05:22:36;;;;;;;13.90;9.57;;;;;;;-0.94;77.83;99612.44;4950522;29;20112;-68
2024/01/29 05:25:02;;;;;;;10.38;9.10;;;;;;;-0.99;78.13;99608.53;4953286;29;20031;-68
2024/01/29 05:27:27;;;;;;;11.40;8.75;;;;;;;-0.87;78.25;99612.72;4964792;28;20038;-69
2024/01/29 05:29:53;;;;;;;10.40;8.80;;;;;;;-0.87;78.40;99618.84;4967904;28;20027;-70
2024/01/29 05:32:19;;;;;;;11.82;9.13;;;;;;;-0.87;77.71;99621.50;4955894;28;20039;-68
2024/01/29 05:34:45;;;;;;;14.32;9.43;;;;;;;-1.05;78.27;99619.66;4965553;28;20035;-68
2024/01/29 05:37:10;;;;;;;14.10;10.00;;;;;;;-0.91;77.72;99627.19;4954903;29;20065;-68
2024/01/29 05:39:35;;;;;;;11.07;9.10;;;;;;;-0.93;77.76;99623.81;4967103;28;20055;-68
2024/01/29 05:42:01;;;;;;;12.88;10.00;;;;;;;-0.98;78.32;99623.41;4954747;28;20499;-68
2024/01/29 05:44:26;;;;;;;17.55;9.02;;;;;;;-1.12;77.50;99597.38;4955713;28;20031;-67
2024/01/29 05:46:51;;;;;;;8.52;7.68;;;;;;;-1.03;77.69;99618.56;4949323;28;20079;-70
2024/01/29 05:49:18;;;;;;;11.13;8.43;;;;;;;-1.00;77.80;99630.63;4963919;28;20023;-68
2024/01/29 05:51:44;;;;;;;16.13;12.40;;;;;;;-1.10;77.59;99616.56;4965058;28;20039;-69
2024/01/29 05:54:09;;;;;;;17.38;13.40;;;;;;;-1.06;78.26;99632.03;4957546;28;20038;-68
2024/01/29 05:56:34;;;;;;;18.00;13.73;;;;;;;-1.06;77.75;99624.09;4947298;28;20501;-68
2024/01/29 05:59:00;;;;;;;18.27;13.93;;;;;;;-1.07;77.27;99626.84;4957780;28;20073;-70
2024/01/29 06:01:25;;;;;;;10.90;7.88;;;;;;;-1.15;77.98;99634.66;4965766;28;20408;-68
2024/01/29 06:03:50;;;;;;;11.13;8.38;;;;;;;-1.08;77.83;99635.78;4955749;28;20122;-68
2024/01/29 06:06:16;;;;;;;10.30;8.10;;;;;;;-1.06;78.10;99644.41;4955792;28;20046;-69
2024/01/29 06:08:41;;;;;;;9.80;7.38;;;;;;;-1.15;78.30;99639.94;4957952;28;20019;-69
2024/01/29 06:11:06;;;;;;;11.48;7.85;;;;;;;-1.17;78.34;99644.50;4954820;28;20039;-69
2024/01/29 06:13:32;;;;;;;12.40;8.48;;;;;;;-1.05;78.58;99646.09;4965135;28;20046;-69
2024/01/29 06:15:58;;;;;;;8.52;7.50;;;;;;;-1.02;78.41;99645.78;4954408;28;20042;-69
2024/01/29 06:18:23;;;;;;;8.85;7.95;;;;;;;-1.04;78.24;99653.03;4955355;28;20039;-68
2024/01/29 06:20:49;;;;;;;12.35;8.32;;;;;;;-1.17;78.58;99655.09;4956433;28;20581;-69
2024/01/29 06:23:14;;;;;;;11.90;8.65;;;;;;;-1.13;78.11;99643.28;4974135;28;20027;-69
2024/01/29 06:25:40;;;;;;;9.57;7.70;;;;;;;-1.18;78.22;99641.03;4961917;28;20031;-70
2024/01/29 06:28:07;;;;;;;10.40;8.27;;;;;;;-1.07;78.23;99658.56;4953935;29;20395;-71
2024/01/29 06:30:33;;;;;;;12.93;7.28;;;;;;;-1.20;78.26;99663.28;4963960;28;20043;-70
2024/01/29 06:32:58;;;;;;;9.43;6.70;;;;;;;-1.17;78.71;99663.03;4954857;28;20527;-70
2024/01/29 06:35:24;;;;;;;10.73;8.75;;;;;;;-1.10;78.33;99664.16;4955248;28;20147;-71
2024/01/29 06:37:49;;;;;;;9.90;7.45;;;;;;;-1.19;78.33;99671.06;4965420;28;20527;-71
2024/01/29 06:40:15;;;;;;;12.25;8.85;;;;;;;-1.18;78.75;99654.25;4969685;28;20032;-70
2024/01/29 06:42:40;;;;;;;10.32;9.25;;;;;;;-1.16;78.57;99659.38;4954786;28;20126;-71
2024/01/29 06:45:07;;;;;;;12.15;8.25;;;;;;;-1.26;78.24;99666.47;4961061;28;20071;-71
2024/01/29 06:47:32;;;;;;;10.60;9.60;;;;;;;-1.24;78.38;99651.31;4967392;28;20700;-72
2024/01/29 06:49:58;;;;;;;12.95;10.13;;;;;;;-1.16;78.50;99665.50;4954271;28;20038;-71
2024/01/29 06:52:25;;;;;;;11.05;9.40;;;;;;;-1.14;78.06;99660.09;4966647;28;20487;-71
2024/01/29 06:54:51;;;;;;;13.02;8.45;;;;;;;-1.22;78.14;99665.22;4955458;28;20058;-70
2024/01/29 06:57:16;;;;;;;10.20;8.80;;;;;;;-1.04;78.56;99675.00;4954614;28;20055;-71
2024/01/29 06:59:42;;;;;;;12.27;8.60;;;;;;;-1.15;78.73;99685.69;4954698;28;20031;-70
2024/01/29 07:02:08;;;;;;;9.45;8.35;;;;;;;-1.11;78.32;99667.75;4964005;28;20541;-70
2024/01/29 07:04:33;;;;;;;10.75;9.25;;;;;;;-1.00;78.48;99683.50;4965959;28;20076;-70
2024/01/29 07:06:59;;;;;;;9.82;8.07;;;;;;;-1.14;78.60;99683.88;4962545;28;20039;-70
2024/01/29 07:09:25;;;;;;;10.02;9.02;;;;;;;-1.10;78.72;99666.78;4954472;28;20110;-70
2024/01/29 07:11:50;;;;;;;11.05;8.95;;;;;;;-0.98;78.32;99685.03;4954386;28;20027;-71
2024/01/29 07:14:15;;;;;;;10.90;8.80;;;;;;;-1.16;78.54;99648.81;4955536;28;20110;-70
2024/01/29 07:16:41;;;;;;;11.73;9.65;;;;;;;-1.00;78.44;99680.84;4984107;28;20023;-70
2024/01/29 07:19:06;;;;;;;11.38;8.00;;;;;;;-1.09;78.50;99682.50;4954419;28;20038;-70
2024/01/29 07:21:32;;;;;;;12.57;9.32;;;;;;;-1.01;78.43;99674.75;4968895;28;20034;-71
2024/01/29 07:23:57;;;;;;;12.10;8.02;;;;;;;-1.01;78.72;99684.47;4969219;28;20038;-69
2024/01/29 07:26:24;;;;;;;9.90;8.50;;;;;;;-0.82;78.45;99679.25;4966376;28;20651;-71
2024/01/29 07:28:49;;;;;;;10.73;8.82;;;;;;;-0.73;78.12;99684.56;4954150;28;20097;-71
2024/01/29 07:31:17;;;;;;;9.70;8.65;;;;;;;-0.79;78.52;99663.09;4965042;28;20027;-71
2024/01/29 07:33:42;;;;;;;9.50;8.30;;;;;;;-0.61;77.83;99687.91;4953387;28;20074;-71
2024/01/29 07:36:08;;;;;;;9.68;8.25;;;;;;;-0.64;77.78;99671.47;4953925;28;20059;-70
2024/01/29 07:38:33;;;;;;;9.98;8.82;;;;;;;-0.53;78.21;99679.28;4952693;28;20488;-71
2024/01/29 07:40:59;;;;;;;11.20;9.32;;;;;;;-0.51;78.62;99683.47;4968284;28;20030;-71
2024/01/29 07:43:24;;;;;;;11.63;7.53;;;;;;;-0.67;78.01;99667.28;4954059;29;20042;-71
2024/01/29 07:45:50;;;;;;;9.75;8.75;;;;;;;-0.46;78.52;99675.94;4961493;28;20031;-70
2024/01/29 07:48:15;;;;;;;13.70;10.60;;;;;;;-0.39;77.77;99674.41;4958215;28;20039;-71
2024/01/29 07:50:41;;;;;;;12.82;9.60;;;;;;;-0.36;77.78;99681.25;4968187;28;20031;-71
2024/01/29 07:53:06;;;;;;;11.00;9.63;;;;;;;-0.33;78.37;99679.16;4953389;28;20462;-71
2024/01/29 07:55:32;;;;;;;12.52;10.45;;;;;;;-0.28;77.96;99678.75;4953775;28;20058;-71
2024/01/29 07:57:57;;;;;;;11.52;10.07;;;;;;;-0.22;78.61;99676.38;4952941;28;20035;-70
2024/01/29 08:00:22;;;;;;;14.27;9.65;;;;;;;-0.29;78.90;99679.72;4953798;28;20605;-69
2024/01/29 08:02:48;;;;;;;12.05;10.60;;;;;;;-0.15;78.06;99688.06;4952448;28;20085;-71
2024/01/29 08:05:13;;;;;;;13.32;11.23;;;;;;;-0.10;78.96;99669.97;4965281;28;20027;-70
2024/01/29 08:07:38;;;;;;;18.95;14.30;;;;;;;-0.08;79.03;99673.31;4953437;28;20141;-70
2024/01/29 08:10:05;;;;;;;16.33;12.68;;;;;;;0.08;78.36;99679.81;4945767;28;20015;-71
2024/01/29 08:12:30;;;;;;;13.95;12.45;;;;;;;0.16;77.99;99687.91;4954429;28;20039;-71
2024/01/29 08:14:55;;;;;;;17.50;14.38;;;;;;;0.19;77.78;99682.34;4962905;28;20082;-71
2024/01/29 08:17:21;;;;;;;74.43;48.85;;;;;;;0.28;78.11;99676.19;4964862;28;20483;-70
2024/01/29 08:19:46;;;;;;;29.63;22.42;;;;;;;0.33;78.34;99680.03;4953483;28;20043;-69
2024/01/29 08:22:12;;;;;;;17.30;13.23;;;;;;;0.45;78.01;99692.16;4951114;28;20051;-69
2024/01/29 08:24:37;;;;;;;17.67;14.00;;;;;;;0.56;77.87;99680.56;4948733;28;20110;-69
2024/01/29 08:27:03;;;;;;;19.40;14.63;;;;;;;0.67;77.71;99683.03;4953245;28;20035;-69
2024/01/29 08:29:28;;;;;;;26.00;22.25;;;;;;;0.70;77.75;99682.75;4952417;29;20427;-69
2024/01/29 08:34:23;;;;;;;12.80;11.57;;;;;;;0.70;78.14;99672.13;5110007;27;20372;-70
2024/01/29 08:36:48;;;;;;;12.18;10.00;;;;;;;0.87;78.58;99691.72;5107779;28;20532;-70
2024/01/29 08:39:13;;;;;;;10.77;9.68;;;;;;;0.80;77.44;99672.91;5088008;28;20028;-70
2024/01/29 08:41:39;;;;;;;12.45;8.80;;;;;;;0.87;77.42;99671.34;5076706;28;20078;-69
2024/01/29 08:44:06;;;;;;;11.25;10.05;;;;;;;0.99;78.36;99683.44;5090326;28;20558;-70
2024/01/29 08:46:32;;;;;;;11.40;8.77;;;;;;;1.14;77.86;99681.97;5087639;28;20036;-69
2024/01/29 08:48:57;;;;;;;10.63;8.38;;;;;;;1.15;76.46;99677.47;5090834;28;20040;-69
2024/01/29 08:51:23;;;;;;;9.15;7.57;;;;;;;1.23;76.64;99683.72;5096978;28;20036;-70
2024/01/29 08:53:48;;;;;;;7.47;6.65;;;;;;;1.25;76.45;99662.34;5076618;28;20020;-70
2024/01/29 08:56:13;;;;;;;8.88;7.10;;;;;;;1.42;76.34;99680.13;5092365;28;20040;-69
2024/01/29 08:58:39;;;;;;;8.27;7.40;;;;;;;1.49;75.29;99664.44;5096728;28;20036;-69
2024/01/29 09:01:04;;;;;;;11.27;7.85;;;;;;;1.60;76.02;99677.47;5091616;28;20506;-70
2024/01/29 09:03:30;;;;;;;8.30;6.93;;;;;;;1.64;75.80;99668.22;5094416;28;20028;-70
2024/01/29 09:05:55;;;;;;;8.38;7.45;;;;;;;1.81;75.59;99681.50;5097461;28;20035;-70
2024/01/29 09:08:22;;;;;;;8.95;7.68;;;;;;;1.84;75.41;99675.88;5089020;28;20020;-70
2024/01/29 09:10:47;;;;;;;8.02;7.00;;;;;;;1.92;74.84;99677.75;5080163;28;20097;-70
2024/01/29 09:13:12;;;;;;;10.52;7.78;;;;;;;2.07;74.16;99692.19;5087592;28;20024;-70
2024/01/29 09:15:38;;;;;;;9.73;7.20;;;;;;;2.17;73.48;99698.22;5099396;28;20403;-70
2024/01/29 09:18:04;;;;;;;10.00;8.10;;;;;;;2.31;73.83;99699.50;5102994;28;20042;-69
2024/01/29 09:20:30;;;;;;;9.45;7.90;;;;;;;2.42;73.32;99699.25;5094426;28;20492;-69
2024/01/29 09:22:55;;;;;;;10.48;8.32;;;;;;;2.37;72.54;99682.94;5092145;28;20036;-70
2024/01/29 09:25:20;;;;;;;12.23;7.95;;;;;;;2.54;72.33;99703.31;5095627;28;20549;-70
2024/01/29 09:27:46;;;;;;;9.55;7.47;;;;;;;2.59;73.18;99695.72;5095286;28;20028;-70
2024/01/29 09:30:12;;;;;;;10.27;7.50;;;;;;;2.70;71.93;99698.94;5092110;28;20040;-70
2024/01/29 09:32:37;;;;;;;10.05;7.80;;;;;;;2.74;72.10;99702.94;5107700;28;20019;-70
2024/01/29 09:35:04;;;;;;;10.10;7.50;;;;;;;2.84;72.14;99696.66;5107377;28;20111;-71
2024/01/29 09:37:29;;;;;;;9.85;8.30;;;;;;;2.91;71.98;99692.38;5103459;28;20032;-70
2024/01/29 09:39:55;;;;;;;8.82;7.93;;;;;;;2.81;71.81;99668.56;5088397;28;20040;-70
2024/01/29 09:42:24;;;;;;;9.43;7.85;;;;;;;3.07;71.91;99697.78;5085746;28;20051;-71
2024/01/29 09:44:52;;;;;;;10.95;9.68;;;;;;;2.84;71.93;99646.97;5094922;28;20492;-70
2024/01/29 09:47:18;;;;;;;8.75;7.43;;;;;;;3.14;72.53;99702.31;5079865;28;20024;-71
2024/01/29 09:49:44;;;;;;;9.80;7.57;;;;;;;3.17;72.94;99701.16;5078097;28;20032;-70
2024/01/29 09:52:12;;;;;;;10.23;8.02;;;;;;;3.01;72.70;99682.47;5079876;28;20020;-70
2024/01/29 09:54:38;;;;;;;10.40;8.00;;;;;;;3.10;72.84;99694.81;5081501;28;20499;-69
2024/01/29 09:57:04;;;;;;;9.27;7.88;;;;;;;3.01;73.20;99682.47;5074631;28;20037;-70
2024/01/29 09:59:29;;;;;;;11.38;7.93;;;;;;;3.02;72.71;99676.13;5082679;28;20024;-70
2024/01/29 10:01:56;;;;;;;8.77;7.13;;;;;;;3.13;72.96;99689.13;5072846;28;20100;-70
2024/01/29 10:04:22;;;;;;;8.38;6.65;;;;;;;3.14;71.86;99682.84;5080737;28;20036;-71
2024/01/29 10:06:47;;;;;;;9.43;6.85;;;;;;;3.37;71.19;99699.88;5080353;28;20110;-69
2024/01/29 10:09:14;;;;;;;10.32;7.88;;;;;;;3.47;71.80;99712.09;5078193;28;20606;-69
2024/01/29 10:11:41;;;;;;;8.00;6.93;;;;;;;3.61;72.03;99707.13;5080057;28;20039;-70
2024/01/29 10:14:07;;;;;;;7.63;6.72;;;;;;;3.72;70.98;99715.63;5089107;28;20024;-69
2024/01/29 10:16:33;;;;;;;7.95;5.97;;;;;;;3.74;71.01;99702.97;5081189;28;20442;-71
2024/01/29 10:19:00;;;;;;;12.35;9.02;;;;;;;3.60;71.02;99678.78;5075582;28;20094;-70
2024/01/29 10:21:25;;;;;;;10.68;7.32;;;;;;;3.83;70.80;99723.31;5072936;28;20031;-70
2024/01/29 10:23:55;;;;;;;9.00;7.32;;;;;;;3.88;70.03;99715.66;5085076;28;20480;-71
2024/01/29 10:26:22;;;;;;;8.77;7.32;;;;;;;3.85;69.77;99721.31;5086070;28;20115;-71
2024/01/29 10:28:47;;;;;;;11.48;7.45;;;;;;;3.85;69.34;99726.63;5055833;28;20380;-70
2024/01/29 10:31:15;;;;;;;9.82;7.75;;;;;;;3.76;69.22;99706.31;5072407;28;20106;-70
2024/01/29 10:33:40;;;;;;;12.70;8.95;;;;;;;3.94;68.93;99720.34;5078838;28;20029;-71
2024/01/29 10:36:06;;;;;;;8.95;7.72;;;;;;;3.98;68.85;99715.50;5080740;28;20161;-70
2024/01/29 10:38:34;;;;;;;11.23;8.40;;;;;;;4.10;68.56;99709.69;5079174;28;20021;-71
2024/01/29 10:41:00;;;;;;;10.35;7.95;;;;;;;4.28;68.25;99711.34;5076025;28;20075;-70
2024/01/29 10:43:37;;;;;;;8.65;7.75;;;;;;;4.25;67.99;99695.69;5051311;28;20020;-71
2024/01/29 10:46:07;;;;;;;10.32;8.27;;;;;;;4.43;67.95;99702.50;5063520;28;20496;-71
2024/01/29 10:48:32;;;;;;;10.90;8.02;;;;;;;4.51;67.68;99698.97;5075278;28;20035;-70
2024/01/29 10:50:58;;;;;;;8.38;7.45;;;;;;;4.57;67.11;99695.66;5087047;28;20437;-71
2024/01/29 10:53:24;;;;;;;8.93;7.60;;;;;;;4.68;67.50;99703.28;5077303;28;20028;-71
2024/01/29 10:55:51;;;;;;;9.57;7.93;;;;;;;4.68;67.56;99676.63;5080321;28;20024;-71
2024/01/29 10:58:17;;;;;;;8.75;7.78;;;;;;;4.84;67.88;99695.25;5079855;28;20068;-71
2024/01/29 11:00:44;;;;;;;9.75;7.45;;;;;;;4.90;67.56;99682.03;5076103;28;20093;-71
2024/01/29 11:03:10;;;;;;;10.90;8.57;;;;;;;5.00;67.95;99687.19;5073216;28;20099;-71
2024/01/29 11:05:37;;;;;;;10.23;8.30;;;;;;;5.12;67.85;99696.50;5081577;28;20479;-70
2024/01/29 11:08:05;;;;;;;9.85;7.88;;;;;;;5.18;68.39;99690.44;5075545;28;20033;-70
2024/01/29 11:10:31;;;;;;;10.25;7.65;;;;;;;5.15;68.94;99677.47;5076662;28;20391;-71
2024/01/29 11:12:58;;;;;;;9.23;6.47;;;;;;;5.32;67.29;99692.38;5075326;28;20549;-71
2024/01/29 11:15:23;;;;;;;7.05;5.95;;;;;;;5.50;65.75;99679.63;5077669;28;20033;-71
2024/01/29 11:17:49;;;;;;;7.32;5.68;;;;;;;5.62;64.95;99681.91;5075610;28;20111;-71
2024/01/29 11:20:15;;;;;;;5.93;5.00;;;;;;;5.71;64.26;99670.97;5080112;28;20478;-70
2024/01/29 11:22:49;;;;;;;5.80;5.05;;;;;;;5.84;62.92;99668.56;5076759;28;20048;-71
2024/01/29 11:25:15;;;;;;;6.35;5.43;;;;;;;5.90;62.54;99669.72;5086798;28;20036;-69
2024/01/29 11:27:44;;;;;;;6.70;5.13;;;;;;;5.96;63.07;99658.28;5070886;28;20036;-71